Time;durP1;ratioP1;P1;durP2;ratioP2;P2;SDS_P1;SDS_P2;PMS_P1;PMS_P2;Temp;Humidity;BMP_temperature;BMP_pressure;BME280_temperature;BME280_humidity;BME280_pressure;Samples;Min_cycle;Max_cycle;Signal;HPM_P1;HPM_P2
2023/09/04 00:00:07;;;;;;;5.93;5.43;;;;;22.50;101644.00;;;;2102609;28;20872;-66
2023/09/04 00:01:08;;;;;;;6.20;5.60;;;;;22.50;101642.00;;;;2099656;28;20208;-66
2023/09/04 00:02:08;;;;;;;7.97;5.70;;;;;22.50;101638.00;;;;2084416;28;20222;-66
2023/09/04 00:03:08;;;;;;;6.50;5.90;;;;;22.50;101642.00;;;;2102584;28;20212;-66
2023/09/04 00:04:09;;;;;;;6.70;5.80;;;;;22.50;101648.00;;;;2099192;28;20265;-66
2023/09/04 00:05:09;;;;;;;9.33;5.47;;;;;22.50;101646.00;;;;2102906;28;20216;-66
2023/09/04 00:06:09;;;;;;;5.93;5.43;;;;;22.50;101645.00;;;;2098573;28;20227;-66
2023/09/04 00:07:10;;;;;;;5.73;4.93;;;;;22.50;101639.00;;;;2089144;28;20590;-66
2023/09/04 00:08:11;;;;;;;8.83;5.63;;;;;22.50;101645.00;;;;2104847;28;20688;-66
2023/09/04 00:09:11;;;;;;;7.93;5.35;;;;;22.50;101643.00;;;;2094509;28;20220;-66
2023/09/04 00:10:12;;;;;;;5.53;4.90;;;;;22.50;101638.00;;;;2103046;28;20242;-66
2023/09/04 00:11:12;;;;;;;5.50;5.00;;;;;22.50;101644.00;;;;2102012;28;20307;-66
2023/09/04 00:12:13;;;;;;;6.33;5.60;;;;;22.50;101637.00;;;;2090752;28;20292;-66
2023/09/04 00:13:13;;;;;;;7.83;6.07;;;;;22.50;101636.00;;;;2087419;28;20225;-66
2023/09/04 00:14:15;;;;;;;6.37;5.50;;;;;22.50;101639.00;;;;2086355;28;20221;-66
2023/09/04 00:15:16;;;;;;;6.00;5.15;;;;;22.50;101636.00;;;;2091602;28;20226;-66
2023/09/04 00:16:16;;;;;;;8.50;5.20;;;;;22.50;101644.00;;;;2085515;28;20235;-66
2023/09/04 00:17:18;;;;;;;7.70;5.70;;;;;22.50;101642.00;;;;2099920;28;20231;-66
2023/09/04 00:18:18;;;;;;;6.85;5.07;;;;;22.50;101640.00;;;;2100318;28;20219;-66
2023/09/04 00:19:18;;;;;;;5.70;5.07;;;;;22.50;101641.00;;;;2093168;28;20213;-66
2023/09/04 00:20:19;;;;;;;8.77;5.50;;;;;22.50;101640.00;;;;2093587;28;20310;-66
2023/09/04 00:21:19;;;;;;;6.63;5.13;;;;;22.50;101631.00;;;;2089657;28;20269;-66
2023/09/04 00:22:19;;;;;;;8.53;5.93;;;;;22.50;101639.00;;;;2095270;28;20242;-66
2023/09/04 00:23:20;;;;;;;5.30;4.80;;;;;22.50;101630.00;;;;2099895;28;20216;-66
2023/09/04 00:24:22;;;;;;;7.47;4.90;;;;;22.50;101634.00;;;;2103992;28;20237;-66
2023/09/04 00:25:22;;;;;;;5.80;5.25;;;;;22.50;101635.00;;;;2099654;28;20587;-66
2023/09/04 00:26:22;;;;;;;5.87;5.10;;;;;22.50;101632.00;;;;2081125;28;20221;-66
2023/09/04 00:27:23;;;;;;;6.10;5.50;;;;;22.50;101637.00;;;;2096285;28;20702;-66
2023/09/04 00:28:24;;;;;;;6.70;5.07;;;;;22.50;101639.00;;;;2093957;28;20705;-66
2023/09/04 00:29:24;;;;;;;8.23;5.50;;;;;22.50;101640.00;;;;2104302;28;20234;-66
2023/09/04 00:30:25;;;;;;;7.43;5.83;;;;;22.30;101635.00;;;;2094338;28;20220;-66
2023/09/04 00:31:25;;;;;;;5.93;5.07;;;;;22.50;101632.00;;;;2093068;28;20563;-66
2023/09/04 00:32:26;;;;;;;7.30;4.50;;;;;22.50;101643.00;;;;2082577;28;20449;-66
2023/09/04 00:33:26;;;;;;;5.07;4.40;;;;;22.50;101647.00;;;;2090505;28;20224;-66
2023/09/04 00:34:26;;;;;;;5.87;5.27;;;;;22.30;101630.00;;;;2091713;28;20216;-66
2023/09/04 00:35:27;;;;;;;5.60;4.90;;;;;22.50;101637.00;;;;2095965;28;20355;-66
2023/09/04 00:36:27;;;;;;;7.13;5.00;;;;;22.50;101626.00;;;;2092319;28;20700;-66
2023/09/04 00:37:27;;;;;;;6.00;5.10;;;;;22.50;101634.00;;;;2096050;28;20224;-66
2023/09/04 00:38:28;;;;;;;7.90;5.10;;;;;22.40;101634.00;;;;2097112;28;20219;-66
2023/09/04 00:39:28;;;;;;;5.00;4.50;;;;;22.40;101628.00;;;;2096036;28;20220;-66
2023/09/04 00:40:29;;;;;;;7.33;4.97;;;;;22.50;101629.00;;;;2096218;28;20220;-66
2023/09/04 00:41:30;;;;;;;7.40;4.77;;;;;22.40;101629.00;;;;2091286;28;20503;-66
2023/09/04 00:42:30;;;;;;;4.67;4.17;;;;;22.40;101621.00;;;;2095437;28;20603;-66
2023/09/04 00:43:35;;;;;;;5.70;4.83;;;;;22.50;101620.00;;;;2087608;28;20752;-66
2023/09/04 00:44:36;;;;;;;6.10;4.97;;;;;22.40;101624.00;;;;2103040;28;20291;-66
2023/09/04 00:45:37;;;;;;;5.07;4.67;;;;;22.50;101624.00;;;;2092173;28;20250;-66
2023/09/04 00:46:37;;;;;;;5.70;5.20;;;;;22.40;101622.00;;;;2076860;28;20495;-66
2023/09/04 00:47:40;;;;;;;6.17;5.57;;;;;22.40;101621.00;;;;2094861;28;20305;-66
2023/09/04 00:48:41;;;;;;;6.10;5.22;;;;;22.50;101571.00;;;;2079339;28;20750;-66
2023/09/04 00:49:41;;;;;;;6.27;4.87;;;;;22.40;101607.00;;;;2080452;28;20213;-66
2023/09/04 00:50:42;;;;;;;5.63;4.53;;;;;22.50;101628.00;;;;2086497;28;20236;-66
2023/09/04 00:51:42;;;;;;;5.07;4.37;;;;;22.40;101625.00;;;;2082815;28;20301;-66
2023/09/04 00:52:42;;;;;;;5.13;4.63;;;;;22.40;101624.00;;;;2079114;28;20232;-66
2023/09/04 00:53:43;;;;;;;4.67;4.10;;;;;22.40;101622.00;;;;2080022;28;20303;-66
2023/09/04 00:54:43;;;;;;;5.20;4.70;;;;;22.40;101620.00;;;;2079219;28;20240;-66
2023/09/04 00:55:43;;;;;;;4.93;4.37;;;;;22.40;101609.00;;;;2079925;28;20217;-66
2023/09/04 00:56:44;;;;;;;5.00;4.60;;;;;22.50;101613.00;;;;2067687;28;20699;-66
2023/09/04 00:57:44;;;;;;;5.07;4.30;;;;;22.40;101613.00;;;;2078989;28;20212;-66
2023/09/04 00:58:44;;;;;;;5.60;4.87;;;;;22.40;101616.00;;;;2095303;28;20208;-66
2023/09/04 00:59:45;;;;;;;6.50;4.57;;;;;22.40;101606.00;;;;2088700;28;20220;-66
2023/09/04 01:00:45;;;;;;;5.90;4.40;;;;;22.40;101616.00;;;;2087603;28;20213;-66
2023/09/04 01:01:46;;;;;;;5.50;4.83;;;;;22.40;101595.00;;;;2076910;28;20221;-66
2023/09/04 01:02:46;;;;;;;5.10;4.60;;;;;22.40;101607.00;;;;2087573;28;21045;-66
2023/09/04 01:03:47;;;;;;;6.23;4.27;;;;;22.40;101616.00;;;;2086755;28;20216;-66
2023/09/04 01:04:47;;;;;;;5.00;4.50;;;;;22.40;101618.00;;;;2079863;28;20608;-66
2023/09/04 01:05:47;;;;;;;5.97;4.30;;;;;22.40;101616.00;;;;2098923;28;20219;-66
2023/09/04 01:06:48;;;;;;;5.00;4.30;;;;;22.30;101616.00;;;;2082401;28;20227;-66
2023/09/04 01:07:48;;;;;;;4.80;4.30;;;;;22.40;101616.00;;;;2092735;28;20287;-66
2023/09/04 01:08:48;;;;;;;4.43;4.00;;;;;22.40;101624.00;;;;2099986;28;20278;-66
2023/09/04 01:09:49;;;;;;;5.23;3.83;;;;;22.40;101618.00;;;;2097272;28;20216;-66
2023/09/04 01:11:26;;;;;;;4.90;4.43;;;;;22.40;101616.00;;;;2082231;28;20307;-66
2023/09/04 01:12:46;;;;;;;5.40;4.90;;;;;22.40;101564.00;;;;2081930;28;20220;-66
2023/09/04 01:13:50;;;;;;;5.32;4.30;;;;;22.40;101557.00;;;;2072896;28;20221;-66
2023/09/04 01:14:52;;;;;;;5.25;4.07;;;;;22.40;101617.00;;;;2078001;28;20216;-66
2023/09/04 01:15:52;;;;;;;5.72;4.85;;;;;22.40;101613.00;;;;2061361;28;20581;-66
2023/09/04 01:16:52;;;;;;;5.53;4.00;;;;;22.40;101621.00;;;;2058138;28;20243;-66
2023/09/04 01:17:53;;;;;;;4.70;4.03;;;;;22.40;101614.00;;;;2081679;28;20229;-66
2023/09/04 01:18:53;;;;;;;4.73;4.30;;;;;22.40;101613.00;;;;2091405;28;20437;-66
2023/09/04 01:19:54;;;;;;;5.20;4.70;;;;;22.40;101614.00;;;;2090507;28;20231;-66
2023/09/04 01:21:04;;;;;;;4.47;4.10;;;;;22.40;101557.00;;;;2080488;28;20217;-66
2023/09/04 01:22:07;;;;;;;4.50;4.10;;;;;22.40;101608.00;;;;2077764;28;20221;-66
2023/09/04 01:23:08;;;;;;;5.70;4.50;;;;;22.40;101618.00;;;;2092074;28;20212;-66
2023/09/04 01:24:09;;;;;;;4.97;4.28;;;;;22.40;101615.00;;;;2083482;28;20709;-66
2023/09/04 01:25:09;;;;;;;5.30;4.80;;;;;22.40;101615.00;;;;2090406;28;20221;-66
2023/09/04 01:26:18;;;;;;;4.40;4.00;;;;;22.40;101612.00;;;;2085111;28;20252;-66
2023/09/04 01:27:21;;;;;;;5.05;4.55;;;;;22.40;101609.00;;;;2071796;28;20226;-66
2023/09/04 01:28:31;;;;;;;4.72;4.22;;;;;22.40;101617.00;;;;2071476;28;20241;-66
2023/09/04 01:29:39;;;;;;;5.72;4.22;;;;;22.40;101609.00;;;;2071804;28;20222;-66
2023/09/04 01:30:47;;;;;;;5.25;4.25;;;;;22.40;101621.00;;;;2076353;28;20240;-66
2023/09/04 01:31:48;;;;;;;5.32;4.18;;;;;22.40;101620.00;;;;2059688;28;20229;-66
2023/09/04 01:32:52;;;;;;;3.72;3.42;;;;;22.40;101617.00;;;;2094748;28;20247;-66
2023/09/04 01:33:57;;;;;;;7.13;4.50;;;;;22.40;101589.00;;;;2095915;28;20223;-66
2023/09/04 01:34:57;;;;;;;6.60;4.50;;;;;22.40;101604.00;;;;2087336;28;20224;-66
2023/09/04 01:35:58;;;;;;;4.50;4.10;;;;;22.40;101566.00;;;;2081397;28;20715;-66
2023/09/04 01:36:59;;;;;;;4.43;4.03;;;;;22.40;101609.00;;;;2057881;28;20293;-66
2023/09/04 01:37:59;;;;;;;4.30;3.90;;;;;22.40;101555.00;;;;2063457;28;20577;-66
2023/09/04 01:38:59;;;;;;;4.50;4.03;;;;;22.40;101615.00;;;;2072203;28;20799;-66
2023/09/04 01:40:00;;;;;;;7.00;3.77;;;;;22.40;101567.00;;;;2074688;28;20275;-66
2023/09/04 01:41:04;;;;;;;4.80;4.37;;;;;22.40;101608.00;;;;2074189;28;20767;-66
2023/09/04 01:42:05;;;;;;;4.13;3.72;;;;;22.40;101615.00;;;;2077379;28;20240;-66
2023/09/04 01:43:05;;;;;;;5.30;4.80;;;;;22.40;101616.00;;;;2078801;28;20213;-66
2023/09/04 01:44:06;;;;;;;4.77;3.80;;;;;22.40;101618.00;;;;2087521;28;20263;-66
2023/09/04 01:45:07;;;;;;;5.18;4.68;;;;;22.40;101602.00;;;;2097583;28;20231;-66
2023/09/04 01:46:07;;;;;;;5.10;4.03;;;;;22.40;101616.00;;;;2098749;28;20625;-66
2023/09/04 01:47:08;;;;;;;4.43;4.03;;;;;22.40;101613.00;;;;2078342;28;20215;-66
2023/09/04 01:48:08;;;;;;;4.60;4.20;;;;;22.40;101613.00;;;;2080230;28;20599;-66
2023/09/04 01:49:08;;;;;;;4.40;3.97;;;;;22.40;101612.00;;;;2094422;28;20224;-66
2023/09/04 01:50:09;;;;;;;3.87;3.50;;;;;22.40;101619.00;;;;2101536;28;20246;-66
2023/09/04 01:51:09;;;;;;;4.60;4.20;;;;;22.40;101597.00;;;;2101935;28;20216;-66
2023/09/04 01:52:10;;;;;;;4.90;4.30;;;;;22.30;101614.00;;;;2080164;28;20216;-66
2023/09/04 01:53:10;;;;;;;5.73;4.27;;;;;22.40;101609.00;;;;2094217;28;20224;-66
2023/09/04 01:54:11;;;;;;;4.23;3.83;;;;;22.40;101614.00;;;;2103959;28;20215;-66
2023/09/04 01:55:11;;;;;;;4.25;3.85;;;;;22.40;101609.00;;;;2103098;28;20215;-66
2023/09/04 01:56:12;;;;;;;4.70;4.10;;;;;22.30;101612.00;;;;2101195;28;20223;-66
2023/09/04 01:57:12;;;;;;;4.67;4.10;;;;;22.30;101614.00;;;;2092213;28;20280;-66
2023/09/04 01:58:12;;;;;;;4.63;4.20;;;;;22.30;101618.00;;;;2104903;28;20211;-66
2023/09/04 01:59:13;;;;;;;4.20;3.80;;;;;22.40;101617.00;;;;2105703;28;20219;-66
2023/09/04 02:00:13;;;;;;;3.60;3.30;;;;;22.40;101615.00;;;;2099269;28;20721;-66
2023/09/04 02:01:14;;;;;;;4.27;3.87;;;;;22.40;101622.00;;;;2097232;28;20707;-66
2023/09/04 02:02:14;;;;;;;4.90;3.80;;;;;22.30;101623.00;;;;2098129;28;20264;-66
2023/09/04 02:03:14;;;;;;;4.33;3.90;;;;;22.30;101619.00;;;;2098452;28;20268;-66
2023/09/04 02:04:15;;;;;;;4.40;4.00;;;;;22.30;101619.00;;;;2092790;28;20213;-66
2023/09/04 02:05:15;;;;;;;4.47;4.07;;;;;22.40;101614.00;;;;2095023;28;20315;-66
2023/09/04 02:06:15;;;;;;;4.40;4.00;;;;;22.30;101620.00;;;;2089458;28;20223;-66
2023/09/04 02:07:16;;;;;;;4.40;4.00;;;;;22.30;101565.00;;;;2089471;28;20224;-66
2023/09/04 02:08:16;;;;;;;11.27;4.40;;;;;22.30;101619.00;;;;2094461;28;20213;-66
2023/09/04 02:09:17;;;;;;;4.33;3.73;;;;;22.30;101622.00;;;;2097900;28;20216;-66
2023/09/04 02:10:17;;;;;;;4.17;3.57;;;;;22.30;101618.00;;;;2098948;28;20223;-66
2023/09/04 02:11:18;;;;;;;4.67;4.20;;;;;22.30;101621.00;;;;2092767;28;20246;-66
2023/09/04 02:12:19;;;;;;;4.50;3.70;;;;;22.30;101624.00;;;;2101306;28;20320;-66
2023/09/04 02:13:19;;;;;;;4.43;4.03;;;;;22.30;101625.00;;;;2098317;28;20210;-66
2023/09/04 02:14:19;;;;;;;3.60;3.30;;;;;22.30;101624.00;;;;2097602;28;20253;-66
2023/09/04 02:15:20;;;;;;;4.30;3.90;;;;;22.30;101618.00;;;;2098384;28;20212;-66
2023/09/04 02:16:22;;;;;;;5.80;3.70;;;;;22.30;101612.00;;;;2086822;28;20216;-66
2023/09/04 02:17:22;;;;;;;4.50;4.10;;;;;22.30;101628.00;;;;2097710;28;20230;-66
2023/09/04 02:18:22;;;;;;;4.13;3.30;;;;;22.30;101624.00;;;;2097598;28;20243;-66
2023/09/04 02:19:23;;;;;;;4.93;4.50;;;;;22.30;101620.00;;;;2099531;28;20215;-66
2023/09/04 02:20:23;;;;;;;4.40;3.70;;;;;22.30;101616.00;;;;2097860;28;20286;-66
2023/09/04 02:21:23;;;;;;;4.50;3.40;;;;;22.30;101617.00;;;;2088423;28;20216;-66
2023/09/04 02:22:24;;;;;;;3.97;3.60;;;;;22.30;101622.00;;;;2096520;28;20227;-66
2023/09/04 02:23:25;;;;;;;4.00;3.60;;;;;22.30;101613.00;;;;2098036;28;20301;-66
2023/09/04 02:24:25;;;;;;;4.47;4.07;;;;;22.30;101606.00;;;;2104265;28;20226;-66
2023/09/04 02:25:25;;;;;;;4.10;3.80;;;;;22.30;101614.00;;;;2100460;28;20212;-66
2023/09/04 02:26:26;;;;;;;4.40;4.00;;;;;22.30;101612.00;;;;2094831;28;20219;-66
2023/09/04 02:27:26;;;;;;;4.60;3.97;;;;;22.30;101615.00;;;;2102921;28;20743;-66
2023/09/04 02:28:26;;;;;;;4.37;3.97;;;;;22.30;101606.00;;;;2098592;28;20268;-66
2023/09/04 02:29:29;;;;;;;3.57;3.27;;;;;22.30;101607.00;;;;2097177;28;20216;-66
2023/09/04 02:30:29;;;;;;;4.40;4.00;;;;;22.30;101615.00;;;;2098774;28;20249;-66
2023/09/04 02:31:30;;;;;;;4.30;3.50;;;;;22.30;101618.00;;;;2094392;28;20216;-66
2023/09/04 02:32:30;;;;;;;4.43;3.70;;;;;22.30;101613.00;;;;2099337;28;20247;-66
2023/09/04 02:33:30;;;;;;;4.60;4.20;;;;;22.30;101614.00;;;;2094031;28;20220;-66
2023/09/04 02:34:31;;;;;;;4.13;3.60;;;;;22.30;101613.00;;;;2089760;28;20215;-66
2023/09/04 02:35:31;;;;;;;3.93;3.43;;;;;22.30;101606.00;;;;2099382;28;20222;-66
2023/09/04 02:36:31;;;;;;;4.20;3.80;;;;;22.30;101606.00;;;;2093279;28;20234;-66
2023/09/04 02:37:32;;;;;;;4.30;3.90;;;;;22.30;101606.00;;;;2097881;28;20269;-66
2023/09/04 02:38:32;;;;;;;4.90;3.40;;;;;22.30;101606.00;;;;2101125;28;20216;-66
2023/09/04 02:39:33;;;;;;;4.20;3.80;;;;;22.30;101605.00;;;;2099346;28;20243;-66
2023/09/04 02:40:34;;;;;;;4.30;3.90;;;;;22.30;101601.00;;;;2105879;28;20211;-66
2023/09/04 02:41:34;;;;;;;3.80;3.27;;;;;22.30;101605.00;;;;2089678;28;20684;-66
2023/09/04 02:42:35;;;;;;;3.83;3.53;;;;;22.30;101605.00;;;;2097693;28;20220;-66
2023/09/04 02:43:35;;;;;;;4.30;3.93;;;;;22.30;101606.00;;;;2099948;28;20220;-66
2023/09/04 02:44:35;;;;;;;3.90;3.50;;;;;22.30;101605.00;;;;2097886;28;20238;-66
2023/09/04 02:45:36;;;;;;;3.93;3.50;;;;;22.30;101607.00;;;;2105518;28;20211;-66
2023/09/04 02:46:36;;;;;;;4.17;3.57;;;;;22.30;101607.00;;;;2087373;28;20239;-66
2023/09/04 02:47:37;;;;;;;3.70;3.40;;;;;22.30;101601.00;;;;2097978;28;20216;-66
2023/09/04 02:48:38;;;;;;;3.93;3.63;;;;;22.30;101608.00;;;;2098228;28;20223;-66
2023/09/04 02:49:38;;;;;;;4.82;3.55;;;;;22.30;101607.00;;;;2103690;28;20812;-66
2023/09/04 02:50:40;;;;;;;3.77;3.33;;;;;22.30;101615.00;;;;2106592;28;20238;-66
2023/09/04 02:51:40;;;;;;;3.80;3.30;;;;;22.30;101617.00;;;;2087929;28;20741;-66
2023/09/04 02:52:40;;;;;;;4.03;3.37;;;;;22.30;101619.00;;;;2105818;28;20257;-66
2023/09/04 02:53:41;;;;;;;4.13;3.67;;;;;22.20;101602.00;;;;2102508;28;20211;-66
2023/09/04 02:54:41;;;;;;;4.00;3.30;;;;;22.30;101607.00;;;;2101315;28;20303;-66
2023/09/04 02:55:48;;;;;;;4.00;3.57;;;;;22.30;101603.00;;;;2098654;28;20357;-66
2023/09/04 02:56:48;;;;;;;3.70;3.40;;;;;22.30;101599.00;;;;2088329;28;20224;-66
2023/09/04 02:57:48;;;;;;;4.60;3.70;;;;;22.30;101604.00;;;;2101329;28;20584;-66
2023/09/04 02:58:49;;;;;;;3.90;3.50;;;;;22.30;101602.00;;;;2098027;28;20809;-66
2023/09/04 02:59:49;;;;;;;4.10;3.70;;;;;22.30;101600.00;;;;2095417;28;20720;-66
2023/09/04 03:00:49;;;;;;;4.30;3.90;;;;;22.30;101590.00;;;;2102051;28;20628;-66
2023/09/04 03:01:50;;;;;;;3.70;3.40;;;;;22.30;101591.00;;;;2093073;28;20720;-66
2023/09/04 03:02:50;;;;;;;4.13;3.60;;;;;22.30;101604.00;;;;2097564;28;20223;-66
2023/09/04 03:03:50;;;;;;;4.00;3.60;;;;;22.30;101592.00;;;;2100401;28;20259;-66
2023/09/04 03:04:54;;;;;;;3.37;3.07;;;;;22.30;101592.00;;;;2094299;28;20215;-66
2023/09/04 03:05:54;;;;;;;4.63;3.83;;;;;22.30;101591.00;;;;2094574;28;20224;-66
2023/09/04 03:06:55;;;;;;;4.10;3.70;;;;;22.30;101595.00;;;;2093463;28;20706;-66
2023/09/04 03:07:55;;;;;;;4.20;3.80;;;;;22.30;101589.00;;;;2100491;28;20208;-66
2023/09/04 03:08:55;;;;;;;3.83;3.50;;;;;22.30;101585.00;;;;2093927;28;20203;-66
2023/09/04 03:09:57;;;;;;;3.67;3.33;;;;;22.30;101584.00;;;;2096785;28;20208;-66
2023/09/04 03:10:57;;;;;;;4.30;3.90;;;;;22.30;101589.00;;;;2094986;28;20578;-66
2023/09/04 03:12:01;;;;;;;4.20;3.80;;;;;22.30;101595.00;;;;2085548;28;20223;-66
2023/09/04 03:13:01;;;;;;;3.22;2.92;;;;;22.30;101581.00;;;;2095552;28;20211;-66
2023/09/04 03:14:01;;;;;;;4.37;3.47;;;;;22.20;101592.00;;;;2101596;28;20758;-66
2023/09/04 03:15:06;;;;;;;3.70;3.40;;;;;22.20;101586.00;;;;2100618;28;20205;-66
2023/09/04 03:16:07;;;;;;;3.70;3.40;;;;;22.20;101582.00;;;;2089006;28;20268;-66
2023/09/04 03:17:07;;;;;;;3.60;3.30;;;;;22.20;101581.00;;;;2077429;28;20216;-66
2023/09/04 03:18:09;;;;;;;3.67;3.37;;;;;22.30;101583.00;;;;2097091;28;20220;-66
2023/09/04 03:19:09;;;;;;;3.70;3.40;;;;;22.30;101588.00;;;;2098089;28;20318;-66
2023/09/04 03:20:10;;;;;;;4.07;3.67;;;;;22.20;101577.00;;;;2097681;28;20231;-66
2023/09/04 03:21:10;;;;;;;4.00;3.70;;;;;22.20;101588.00;;;;2105539;28;20298;-66
2023/09/04 03:22:10;;;;;;;3.80;3.47;;;;;22.30;101583.00;;;;2083940;28;20231;-66
2023/09/04 03:23:11;;;;;;;3.60;3.30;;;;;22.20;101585.00;;;;2096545;28;20251;-66
2023/09/04 03:24:11;;;;;;;3.57;3.17;;;;;22.20;101580.00;;;;2097440;28;20220;-66
2023/09/04 03:25:12;;;;;;;3.53;3.23;;;;;22.20;101582.00;;;;2097709;28;20250;-66
2023/09/04 03:26:12;;;;;;;3.93;3.50;;;;;22.20;101585.00;;;;2089678;28;20236;-66
2023/09/04 03:27:12;;;;;;;4.03;3.13;;;;;22.20;101585.00;;;;2077155;28;20290;-66
2023/09/04 03:28:13;;;;;;;3.40;3.10;;;;;22.30;101578.00;;;;2099248;28;20277;-66
2023/09/04 03:29:13;;;;;;;3.10;2.80;;;;;22.20;101578.00;;;;2098715;28;20247;-66
2023/09/04 03:30:13;;;;;;;4.50;3.83;;;;;22.20;101581.00;;;;2101368;28;20230;-66
2023/09/04 03:31:14;;;;;;;3.50;3.20;;;;;22.20;101580.00;;;;2095097;28;20216;-66
2023/09/04 03:32:14;;;;;;;3.60;3.30;;;;;22.20;101577.00;;;;2082854;28;20298;-66
2023/09/04 03:33:15;;;;;;;4.90;3.27;;;;;22.20;101570.00;;;;2088039;28;20220;-66
2023/09/04 03:34:15;;;;;;;5.27;2.97;;;;;22.20;101581.00;;;;2096239;28;20720;-66
2023/09/04 03:35:17;;;;;;;3.80;3.37;;;;;22.20;101566.00;;;;2094163;28;20221;-66
2023/09/04 03:36:17;;;;;;;3.80;3.50;;;;;22.20;101578.00;;;;2079337;28;20220;-66
2023/09/04 03:37:17;;;;;;;3.50;3.20;;;;;22.20;101575.00;;;;2078859;28;20245;-66
2023/09/04 03:38:19;;;;;;;4.53;3.97;;;;;22.20;101575.00;;;;2089811;28;20224;-66
2023/09/04 03:39:19;;;;;;;4.03;3.70;;;;;22.20;101582.00;;;;2105122;28;20307;-66
2023/09/04 03:40:24;;;;;;;4.33;3.93;;;;;22.20;101578.00;;;;2100270;28;20211;-66
2023/09/04 03:41:26;;;;;;;3.75;3.08;;;;;22.20;101575.00;;;;2081279;28;20258;-66
2023/09/04 03:42:26;;;;;;;3.50;3.20;;;;;22.20;101581.00;;;;2091828;28;20219;-66
2023/09/04 03:43:28;;;;;;;3.70;3.40;;;;;22.20;101586.00;;;;2096726;28;20213;-66
2023/09/04 03:44:29;;;;;;;3.47;3.17;;;;;22.20;101582.00;;;;2092068;28;20278;-66
2023/09/04 03:45:33;;;;;;;3.87;3.47;;;;;22.20;101578.00;;;;2082359;28;20213;-66
2023/09/04 03:46:33;;;;;;;4.65;4.25;;;;;22.20;101575.00;;;;2089886;28;20228;-66
2023/09/04 03:47:33;;;;;;;4.03;3.43;;;;;22.20;101581.00;;;;2086940;28;20759;-66
2023/09/04 03:48:34;;;;;;;3.60;3.30;;;;;22.20;101578.00;;;;2092650;28;20959;-66
2023/09/04 03:49:34;;;;;;;3.50;3.20;;;;;22.20;101585.00;;;;2096321;28;20274;-66
2023/09/04 03:50:35;;;;;;;3.77;3.47;;;;;22.20;101584.00;;;;2101614;28;20215;-66
2023/09/04 03:51:36;;;;;;;3.58;3.28;;;;;22.20;101572.00;;;;2087907;28;20224;-66
2023/09/04 03:52:36;;;;;;;4.57;3.53;;;;;22.20;101588.00;;;;2100632;28;20218;-66
2023/09/04 03:53:36;;;;;;;4.17;3.77;;;;;22.20;101575.00;;;;2101734;28;20219;-66
2023/09/04 03:54:37;;;;;;;4.00;3.60;;;;;22.20;101580.00;;;;2100200;28;20219;-66
2023/09/04 03:55:37;;;;;;;4.10;3.00;;;;;22.20;101585.00;;;;2098275;28;20250;-66
2023/09/04 03:56:37;;;;;;;4.23;3.20;;;;;22.20;101558.00;;;;2091748;28;20240;-66
2023/09/04 03:57:39;;;;;;;4.50;3.60;;;;;22.20;101581.00;;;;2097797;28;20235;-66
2023/09/04 03:58:39;;;;;;;5.15;3.45;;;;;22.20;101583.00;;;;2104052;28;20226;-66
2023/09/04 03:59:39;;;;;;;3.40;3.10;;;;;22.20;101582.00;;;;2097691;28;20204;-66
2023/09/04 04:00:40;;;;;;;3.20;3.00;;;;;22.20;101578.00;;;;2096915;28;25341;-66
2023/09/04 04:01:40;;;;;;;3.70;3.37;;;;;22.20;101580.00;;;;2090342;28;20231;-66
2023/09/04 04:02:41;;;;;;;4.00;3.60;;;;;22.20;101578.00;;;;2100476;28;20254;-66
2023/09/04 04:03:41;;;;;;;3.87;3.03;;;;;22.20;101579.00;;;;2102271;28;20220;-66
2023/09/04 04:04:42;;;;;;;3.13;2.93;;;;;22.20;101572.00;;;;2097589;28;20272;-66
2023/09/04 04:05:42;;;;;;;3.83;3.07;;;;;22.20;101575.00;;;;2101113;28;20219;-66
2023/09/04 04:06:42;;;;;;;3.53;3.23;;;;;22.20;101583.00;;;;2086082;28;20749;-66
2023/09/04 04:07:43;;;;;;;5.57;3.40;;;;;22.20;101579.00;;;;2104061;28;20582;-66
2023/09/04 04:08:45;;;;;;;3.50;3.10;;;;;22.20;101579.00;;;;2099895;28;20223;-66
2023/09/04 04:09:47;;;;;;;4.93;3.30;;;;;22.20;101576.00;;;;2102570;28;20242;-66
2023/09/04 04:10:47;;;;;;;3.55;3.08;;;;;22.20;101579.00;;;;2100128;28;20304;-66
2023/09/04 04:11:47;;;;;;;4.50;3.63;;;;;22.20;101573.00;;;;2094762;28;20238;-66
2023/09/04 04:12:51;;;;;;;3.93;3.43;;;;;22.20;101581.00;;;;2096365;28;20208;-66
2023/09/04 04:13:52;;;;;;;3.30;3.00;;;;;22.20;101589.00;;;;2099873;28;20227;-66
2023/09/04 04:14:56;;;;;;;4.43;4.03;;;;;22.20;101576.00;;;;2094984;28;21423;-66
2023/09/04 04:15:58;;;;;;;3.70;3.40;;;;;22.20;101575.00;;;;2085497;28;20272;-66
2023/09/04 04:16:58;;;;;;;4.10;3.80;;;;;22.20;101575.00;;;;2084818;28;20291;-66
2023/09/04 04:17:58;;;;;;;3.97;3.57;;;;;22.20;101574.00;;;;2088647;28;20219;-66
2023/09/04 04:18:59;;;;;;;5.40;3.87;;;;;22.20;101573.00;;;;2096132;28;20232;-66
2023/09/04 04:19:59;;;;;;;4.50;4.10;;;;;22.20;101572.00;;;;2104702;28;20272;-66
2023/09/04 04:20:59;;;;;;;4.50;4.10;;;;;22.20;101579.00;;;;2096744;28;20207;-66
2023/09/04 04:22:00;;;;;;;4.17;3.77;;;;;22.20;101575.00;;;;2087879;28;20290;-66
2023/09/04 04:23:00;;;;;;;4.23;3.83;;;;;22.20;101574.00;;;;2099560;28;20227;-66
2023/09/04 04:24:00;;;;;;;3.97;3.67;;;;;22.20;101571.00;;;;2101549;28;20223;-66
2023/09/04 04:25:01;;;;;;;5.40;3.40;;;;;22.20;101575.00;;;;2102398;28;20243;-66
2023/09/04 04:26:01;;;;;;;4.47;4.07;;;;;22.20;101573.00;;;;2097746;28;20265;-66
2023/09/04 04:27:02;;;;;;;3.53;3.20;;;;;22.20;101562.00;;;;2091193;28;20204;-66
2023/09/04 04:28:02;;;;;;;3.97;3.57;;;;;22.10;101561.00;;;;2104614;28;20688;-66
2023/09/04 04:29:03;;;;;;;3.83;3.53;;;;;22.10;101565.00;;;;2100178;28;20670;-66
2023/09/04 04:30:04;;;;;;;5.67;4.20;;;;;22.20;101567.00;;;;2101608;28;20579;-66
2023/09/04 04:31:04;;;;;;;4.50;3.50;;;;;22.20;101560.00;;;;2098473;28;20261;-66
2023/09/04 04:32:07;;;;;;;3.70;3.40;;;;;22.10;101562.00;;;;2083217;28;20473;-66
2023/09/04 04:33:07;;;;;;;3.50;3.17;;;;;22.10;101555.00;;;;2087877;28;20201;-66
2023/09/04 04:34:08;;;;;;;3.80;3.50;;;;;22.20;101559.00;;;;2087821;28;20258;-66
2023/09/04 04:35:08;;;;;;;3.87;3.57;;;;;22.10;101567.00;;;;2096724;28;20204;-66
2023/09/04 04:36:08;;;;;;;3.27;2.97;;;;;22.10;101563.00;;;;2104964;28;20211;-66
2023/09/04 04:37:09;;;;;;;4.50;4.10;;;;;22.10;101560.00;;;;2089830;28;20208;-66
2023/09/04 04:38:09;;;;;;;3.70;3.40;;;;;22.10;101566.00;;;;2102862;28;20219;-66
2023/09/04 04:39:09;;;;;;;4.30;3.50;;;;;22.10;101566.00;;;;2098468;28;20200;-66
2023/09/04 04:40:10;;;;;;;3.83;3.33;;;;;22.10;101563.00;;;;2099980;28;20226;-66
2023/09/04 04:41:10;;;;;;;4.00;3.57;;;;;22.20;101567.00;;;;2096972;28;20238;-66
2023/09/04 04:42:11;;;;;;;3.77;3.47;;;;;22.10;101521.00;;;;2086669;28;20556;-66
2023/09/04 04:43:11;;;;;;;3.80;3.50;;;;;22.10;101571.00;;;;2096583;28;20575;-66
2023/09/04 04:44:12;;;;;;;4.23;3.80;;;;;22.10;101568.00;;;;2099179;28;20457;-66
2023/09/04 04:45:12;;;;;;;4.07;3.77;;;;;22.10;101566.00;;;;2101403;28;20265;-66
2023/09/04 04:46:15;;;;;;;3.83;3.47;;;;;22.10;101578.00;;;;2102070;28;20246;-66
2023/09/04 04:47:15;;;;;;;3.60;3.30;;;;;22.20;101569.00;;;;2099018;28;20223;-66
2023/09/04 04:48:15;;;;;;;4.00;3.07;;;;;22.10;101580.00;;;;2098638;28;20220;-66
2023/09/04 04:49:19;;;;;;;3.70;3.40;;;;;22.10;101566.00;;;;2099696;28;20226;-66
2023/09/04 04:50:20;;;;;;;3.90;3.40;;;;;22.10;101571.00;;;;2100397;28;20583;-66
2023/09/04 04:51:20;;;;;;;4.50;3.50;;;;;22.10;101572.00;;;;2088513;28;20226;-66
2023/09/04 04:52:20;;;;;;;3.60;3.30;;;;;22.10;101564.00;;;;2095052;28;20220;-66
2023/09/04 04:53:21;;;;;;;4.00;3.70;;;;;22.10;101570.00;;;;2096695;28;20282;-66
2023/09/04 04:54:21;;;;;;;3.83;3.43;;;;;22.10;101562.00;;;;2100319;28;20576;-66
2023/09/04 04:55:21;;;;;;;3.80;3.40;;;;;22.10;101555.00;;;;2099469;28;20585;-66
2023/09/04 04:56:22;;;;;;;5.17;3.50;;;;;22.10;101567.00;;;;2089550;28;20223;-66
2023/09/04 04:57:22;;;;;;;4.27;3.30;;;;;22.10;101564.00;;;;2100662;28;20224;-66
2023/09/04 04:58:23;;;;;;;4.20;3.70;;;;;22.10;101565.00;;;;2099569;28;20262;-66
2023/09/04 04:59:23;;;;;;;4.33;3.37;;;;;22.10;101569.00;;;;2100645;28;20220;-66
2023/09/04 05:00:23;;;;;;;3.37;3.13;;;;;22.10;101572.00;;;;2097852;28;20223;-66
2023/09/04 05:01:24;;;;;;;3.67;3.37;;;;;22.00;101592.00;;;;2087751;28;20219;-66